Home > Products > Valid Products > TAF

000
FTUS43 KDVN 271142
TAFDBQ
TAF
KDBQ 271142Z 2712/2812 26007KT P6SM SCT015 BKN070
      TEMPO 2712/2715 BKN015
     FM271700 28011KT P6SM SCT035 SCT150
     FM272300 23005KT P6SM FEW040
     FM280300 17003KT P6SM SKC=



000
FTUS43 KDVN 271142
TAFMLI
TAF
KMLI 271142Z 2712/2812 24007KT P6SM SCT010 SCT035
     FM271500 27008KT P6SM SCT015 BKN035
     FM271700 29011KT P6SM SCT040 SCT150
     FM272300 23005KT P6SM FEW050
     FM280300 17003KT P6SM SKC=



000
FTUS43 KDVN 271142
TAFCID
TAF
KCID 271142Z 2712/2812 26006KT P6SM SCT040 BKN120
     FM271500 28010KT P6SM SCT035 BKN150
     FM272300 23005KT P6SM FEW050
     FM280300 17003KT P6SM SKC=



000
FTUS43 KDVN 271142
TAFBRL
TAF
KBRL 271142Z 2712/2812 24006KT P6SM SCT040
     FM271500 27008KT P6SM SCT015 BKN035
     FM271800 24006KT P6SM SCT035 SCT150
     FM272300 23005KT P6SM FEW050
     FM280300 17003KT P6SM SKC=



000
FTUS43 KDVN 271122 AAB
TAFMLI
TAF AMD
KMLI 271122Z 2711/2806 25007KT P6SM SCT015 BKN035
     FM271500 28008KT P6SM SCT035 BKN150
     FM272300 23004KT P6SM SKC=



000
FTUS43 KDVN 271122 AAB
TAFDBQ
TAF AMD
KDBQ 271122Z 2711/2806 29008KT P6SM SCT010 BKN025
     FM271400 27010KT P6SM SCT030 BKN120
     FM272300 24007KT P6SM SKC=



000
FTUS43 KDVN 271030 AAA
TAFBRL
TAF AMD
KBRL 271030Z 2711/2806 24006KT P6SM BKN050
     FM271500 27008KT P6SM SCT015 BKN035
     FM271800 24006KT P6SM SCT035 SCT150
     FM272300 25003KT P6SM SKC=



000
FTUS43 KDVN 271028 AAA
TAFMLI
TAF AMD
KMLI 271028Z 2710/2806 25007KT P6SM SCT010 BKN040
      TEMPO 2711/2714 BKN010
     FM271500 28008KT P6SM SCT035 BKN150
     FM272300 23004KT P6SM SKC=



000
FTUS43 KDVN 271025 AAB
TAFCID
TAF AMD
KCID 271025Z 2710/2806 29008KT P6SM SCT015 BKN050
     FM271500 26010KT P6SM SCT035 BKN150
     FM272300 23006KT P6SM SKC=



000
FTUS43 KDVN 271025 AAB
TAFCID
TAF AMD
KCID 271025Z 2710/2806 29008KT P6SM SCT015 BKN050
     FM271500 26010KT P6SM SCT035 BKN150
     FM272300 23006KT P6SM SKC=



000
FTUS43 KDVN 270922 AAA
TAFDBQ
TAF AMD
KDBQ 270922Z 2709/2806 26005KT P6SM -RA BKN025 OVC050
     FM271100 28008KT P6SM BKN008 OVC015
     FM271600 25010KT P6SM SCT030 BKN120
     FM272300 24007KT P6SM SKC=



000
FTUS43 KDVN 270857 AAA
TAFCID
TAF AMD
KCID 270857Z 2709/2806 27007KT P6SM SCT025 BKN050
      TEMPO 2709/2712 BKN025
     FM271500 26010KT P6SM SCT035
     FM272300 23006KT P6SM SKC=



000
FTUS43 KDVN 270857 AAA
TAFCID
TAF AMD
KCID 270857Z 2709/2806 27007KT P6SM SCT025 BKN050
      TEMPO 2709/2712 BKN025
     FM271500 26010KT P6SM SCT035
     FM272300 23006KT P6SM SKC=



000
FTUS43 KDVN 270520
TAFBRL
TAF
KBRL 270520Z 2706/2806 24006KT P6SM SCT100
     FM271000 24006KT 6SM BR BKN028
     FM271500 29008KT P6SM SCT035
     FM272300 25003KT P6SM SKC=



000
FTUS43 KDVN 270520
TAFCID
TAF
KCID 270520Z 2706/2806 23007KT P6SM BKN030
     FM270800 25007KT 5SM BR BKN020
     FM271500 26010KT P6SM SCT035
     FM272300 23006KT P6SM SKC=



000
FTUS43 KDVN 270520
TAFMLI
TAF
KMLI 270520Z 2706/2806 25004KT P6SM SCT035 BKN100
     FM271000 25007KT 5SM BR BKN025
     FM271500 28008KT P6SM SCT035
     FM272300 23004KT P6SM SKC=



000
FTUS43 KDVN 270520
TAFDBQ
TAF
KDBQ 270520Z 2706/2806 25004KT P6SM BKN030
     FM270900 26008KT 4SM BR BKN015
     FM271600 25010KT P6SM SCT035
     FM272300 24007KT P6SM SKC=



000
FTUS43 KDVN 270324 AAA
TAFCID
TAF AMD
KCID 270324Z 2703/2724 20003KT P6SM BKN025 BKN100
     FM270900 27006KT 4SM BR BKN015
     FM271500 29010KT P6SM SCT025=



000
FTUS43 KDVN 270323 AAB
TAFDBQ
TAF AMD
KDBQ 270323Z 2703/2724 24003KT P6SM BKN025
     FM270900 27008KT 4SM BR BKN015
     FM271600 29008KT P6SM SCT025=



000
FTUS43 KDVN 270113 AAA
TAFDBQ
TAF AMD
KDBQ 270113Z 2701/2724 26009KT P6SM VCSH BKN040
     FM270300 24010KT P6SM SCT030 BKN100
     FM270600 25007KT P6SM BKN030
     FM270900 27008KT 4SM BR BKN015
     FM271600 29008KT P6SM SCT025=



000
FTUS43 KDVN 270112 AAA
TAFBRL
TAF AMD
KBRL 270112Z 2701/2724 20005KT P6SM VCTS BKN050CB
     FM270200 23008KT P6SM SCT050 BKN100
     FM271000 24006KT 5SM BR BKN025
     FM271500 29008KT P6SM SCT030=



000
FTUS43 KDVN 270112 AAA
TAFBRL
TAF AMD
KBRL 270112Z 2701/2724 20005KT P6SM VCTS BKN050CB
     FM270200 23008KT P6SM SCT050 BKN100
     FM271000 24006KT 5SM BR BKN025
     FM271500 29008KT P6SM SCT030=



000
FTUS43 KDVN 262341
TAFBRL
TAF
KBRL 262341Z 2700/2724 24010G17KT P6SM VCSH BKN040 OVC080
     FM270200 23008KT P6SM SCT050 BKN100
     FM271000 24006KT 5SM BR BKN025
     FM271500 29008KT P6SM SCT030=



000
FTUS43 KDVN 262341
TAFDBQ
TAF
KDBQ 262341Z 2700/2724 26017G23KT P6SM VCSH BKN030 BKN070
     FM270200 24010KT P6SM SCT030 BKN100
     FM270600 25007KT P6SM BKN030
     FM270900 27008KT 4SM BR BKN015
     FM271600 29008KT P6SM SCT025=



000
FTUS43 KDVN 262341
TAFCID
TAF
KCID 262341Z 2700/2724 26015G20KT P6SM VCSH BKN030 BKN070
     FM270200 24010KT P6SM SCT030 BKN100
     FM270600 26007KT P6SM BKN030
     FM270900 27006KT 4SM BR BKN015
     FM271500 29010KT P6SM SCT025=



000
FTUS43 KDVN 262341
TAFMLI
TAF
KMLI 262341Z 2700/2724 26015G21KT P6SM VCSH BKN040 BKN100
     FM270300 23008KT P6SM SCT030 BKN100
     FM271000 25008KT 5SM BR BKN025
     FM271600 29008KT P6SM SCT030=



000
FTUS43 KDVN 262258 AAA
TAFMLI
TAF AMD
KMLI 262258Z 2623/2718 26015G21KT P6SM VCSH BKN040
     FM270200 24008KT P6SM SCT050 BKN150
     FM271100 26007KT 6SM BR BKN030
     FM271500 29008KT P6SM SCT050 BKN200=



000
FTUS43 KDVN 262257 AAD
TAFCID
TAF AMD
KCID 262257Z 2623/2718 26014KT P6SM VCSH BKN030 BKN070
     FM270200 25008KT P6SM SCT025 BKN150
     FM270600 28007KT P6SM BKN035=



000
FTUS43 KDVN 262257 AAD
TAFCID
TAF AMD
KCID 262257Z 2623/2718 26014KT P6SM VCSH BKN030 BKN070
     FM270200 25008KT P6SM SCT025 BKN150
     FM270600 28007KT P6SM BKN035=



000
FTUS43 KDVN 262241 AAA
TAFBRL
TAF AMD
KBRL 262241Z 2623/2718 23008KT P6SM VCSH BKN050 BKN100
     FM270100 25009KT P6SM SCT050 BKN250
     FM271000 21005KT 5SM BR BKN200
     FM271500 25009KT P6SM BKN250=



000
FTUS43 KDVN 262103 CCB
TAFDBQ
TAF COR
KDBQ 262103Z 2621/2718 25018G28KT P6SM VCSH BKN025
      TEMPO 2621/2622 4SM -SHRA BKN015
     FM270100 24010KT P6SM BKN025
     FM270900 27007KT 5SM BR BKN035
     FM271500 28007KT P6SM BKN250=



000
FTUS43 KDVN 262055 AAB
TAFDBQ
TAF AMD
KDBQ 262055Z 2621/2718 23014G22KT P6SM VCSH SCT020 BKN035
      TEMPO 2621/2622 4SM -SHRA BKN015
     FM270100 24008KT P6SM BKN025
     FM270900 27007KT 5SM BR BKN035
     FM271500 28007KT P6SM BKN250=



000
FTUS43 KDVN 262052 AAC
TAFCID
TAF AMD
KCID 262052Z 2621/2718 27017G25KT P6SM VCSH SCT010 BKN025
      TEMPO 2621/2623 BKN015
     FM262300 26013KT P6SM BKN035
     FM270200 25008KT P6SM SCT025 BKN150
     FM270600 28007KT P6SM BKN035=



000
FTUS43 KDVN 261911 AAA
TAFDBQ
TAF AMD
KDBQ 261911Z 2619/2718 20014G20KT P6SM VCSH SCT020 BKN035
      TEMPO 2619/2621 4SM -SHRA BKN020
     FM270100 23008KT P6SM SCT035 BKN250
     FM270900 27007KT 6SM BR BKN035
     FM271500 28007KT P6SM BKN250=



000
FTUS43 KDVN 261851 AAB
TAFCID
TAF AMD
KCID 261851Z 2619/2718 27020G28KT P6SM VCSH SCT010 BKN025
     FM262100 26015G25KT P6SM BKN035
     FM270100 25008KT P6SM SCT040 BKN250
     FM270900 28007KT P6SM BKN050=



000
FTUS43 KDVN 261804 CCA
TAFDBQ
TAF COR
KDBQ 261804Z 2618/2718 21014G20KT P6SM VCSH SCT020 BKN035
      TEMPO 2618/2619 BKN020
     FM270100 23006KT P6SM SCT035 BKN250
     FM270900 27007KT 6SM BR BKN035
     FM271500 28007KT P6SM BKN250=



000
FTUS43 KDVN 261803 AAA
TAFCID
TAF AMD
KCID 261803Z 2618/2718 24015G25KT P6SM VCSH SCT010 BKN025
      TEMPO 2618/2619 BKN008
     FM262000 25014KT P6SM BKN035
     FM270100 25008KT P6SM SCT040 BKN250
     FM270900 28007KT P6SM BKN050=



000
FTUS43 KDVN 261803 AAA
TAFCID
TAF AMD
KCID 261803Z 2618/2718 24015G25KT P6SM VCSH SCT010 BKN025
      TEMPO 2618/2619 BKN008
     FM262000 25014KT P6SM BKN035
     FM270100 25008KT P6SM SCT040 BKN250
     FM270900 28007KT P6SM BKN050=



000
FTUS43 KDVN 261725
TAFBRL
TAF
KBRL 261725Z 2618/2718 23015G25KT P6SM VCSH SCT025 BKN040
      TEMPO 2618/2619 BKN025
     FM262100 24014G20KT P6SM BKN040
     FM270100 25009KT P6SM SCT050 BKN250
     FM271000 21005KT 5SM BR BKN200
     FM271500 25009KT P6SM BKN250=



000
FTUS43 KDVN 261725
TAFMLI
TAF
KMLI 261725Z 2618/2718 22015G23KT P6SM SCT025 BKN040
     FM270100 24008KT P6SM SCT050 BKN150
     FM271100 26007KT 6SM BR BKN030
     FM271500 29008KT P6SM SCT050 BKN200=



000
FTUS43 KDVN 261725
TAFCID
TAF
KCID 261725Z 2618/2718 15012G18KT P6SM VCSH SCT015 BKN035
      TEMPO 2618/2619 BKN025
     FM262000 22014KT P6SM BKN035
     FM270100 25008KT P6SM SCT040 BKN250
     FM270900 28007KT P6SM BKN050=



000
FTUS43 KDVN 261725
TAFDBQ
TAF
KDBQ 261725Z 2618/2718 18013KT P6SM VCSH BKN025
      TEMPO 2618/2619 BKN015
     FM262000 22013G19KT P6SM BKN035
     FM270100 23006KT P6SM SCT035 BKN250
     FM270900 27007KT 6SM BR BKN035
     FM271500 28007KT P6SM BKN250=



000
FTUS43 KDVN 261703 AAB
TAFCID
TAF AMD
KCID 261703Z 2617/2712 15012G18KT P6SM VCSH SCT015 BKN025
      TEMPO 2617/2618 2SM -RA BR BKN015
     FM261900 20013KT P6SM BKN035
     FM270100 23006KT P6SM SCT040 BKN250=



000
FTUS43 KDVN 261703 AAB
TAFCID
TAF AMD
KCID 261703Z 2617/2712 15012G18KT P6SM VCSH SCT015 BKN025
      TEMPO 2617/2618 2SM -RA BR BKN015
     FM261900 20013KT P6SM BKN035
     FM270100 23006KT P6SM SCT040 BKN250=



000
FTUS43 KDVN 261444 AAC
TAFDBQ
TAF AMD
KDBQ 261444Z 2615/2712 13012G18KT 5SM -SHRA BR SCT015 OVC025
      TEMPO 2615/2616 VRB15G23KT 1SM SHRA BR SCT008 OVC010
     FM261700 18012KT P6SM VCSH BKN025
     FM262000 22013G19KT P6SM BKN035
     FM270100 23006KT P6SM SCT035 BKN250=



000
FTUS43 KDVN 261440 CCA
TAFMLI
TAF COR
KMLI 261440Z 2613/2712 14012KT 6SM -SHRA BR BKN015 OVC050
      TEMPO 2614/2615 23015G25KT 1SM SHRA BR SCT008 OVC010
     FM261600 18012KT P6SM SCT025 BKN035
     FM261900 22013G19KT P6SM BKN040
     FM270100 23006KT P6SM SCT050 BKN250=



000
FTUS43 KDVN 261440 CCA
TAFMLI
TAF COR
KMLI 261440Z 2613/2712 14012KT 6SM -SHRA BR BKN015 OVC050
      TEMPO 2614/2615 23015G25KT 1SM SHRA BR SCT008 OVC010
     FM261600 18012KT P6SM SCT025 BKN035
     FM261900 22013G19KT P6SM BKN040
     FM270100 23006KT P6SM SCT050 BKN250=



000
FTUS43 KDVN 261433 AAC
TAFBRL
TAF AMD
KBRL 261433Z 2615/2712 20011KT P6SM SCT015 BKN050
      TEMPO 2615/2617 BKN020
     FM261800 22013G19KT P6SM BKN040
     FM270100 23006KT P6SM SCT050 BKN250=



000
FTUS43 KDVN 261316 AAB
TAFMLI
TAF AMD
KMLI 261316Z 2613/2712 14012KT 6SM -SHRA BR BKN015 OVC050
      TEMPO 2614/2615 2SM SHRA BR SCT008 OVC020
     FM261600 18012KT P6SM SCT025 BKN035
     FM261900 22013G19KT P6SM BKN040
     FM270100 23006KT P6SM SCT050 BKN250=



000
FTUS43 KDVN 261316 AAB
TAFBRL
TAF AMD
KBRL 261316Z 2613/2712 23010G20KT 1SM -RA BR SCT008 OVC035
      TEMPO 2613/2615 3SM -RA BR BKN015
     FM261500 20011KT P6SM SCT015 BKN035
     FM261800 22013G19KT P6SM BKN040
     FM270100 23006KT P6SM SCT050 BKN250=



000
FTUS43 KDVN 261316 AAB
TAFMLI
TAF AMD
KMLI 261316Z 2613/2712 14012KT 6SM -SHRA BR BKN015 OVC050
      TEMPO 2614/2615 2SM SHRA BR SCT008 OVC020
     FM261600 18012KT P6SM SCT025 BKN035
     FM261900 22013G19KT P6SM BKN040
     FM270100 23006KT P6SM SCT050 BKN250=



000
FTUS43 KDVN 261313 AAB
TAFDBQ
TAF AMD
KDBQ 261313Z 2613/2712 15015G22KT 1SM SHRA BR BKN004 OVC020
     FM261400 15012KT 6SM -SHRA BR SCT015 OVC050
      TEMPO 2614/2616 3SM SHRA BR BKN015
     FM261700 18012KT P6SM VCSH BKN025
     FM262000 22013G19KT P6SM BKN035
     FM270100 23006KT P6SM SCT035 BKN250=



000
FTUS43 KDVN 261247 AAA
TAFBRL
TAF AMD
KBRL 261247Z 2613/2712 17010KT 3SM -RA BR BKN008 OVC025
      TEMPO 2613/2615 6SM -RA BR BKN015
     FM261500 19011KT P6SM SCT015 BKN035
     FM261800 22013G19KT P6SM BKN040
     FM270100 23006KT P6SM SCT050 BKN250=



000
FTUS43 KDVN 261246 AAA
TAFMLI
TAF AMD
KMLI 261246Z 2613/2712 14012KT 6SM -SHRA BR SCT015 OVC050
      TEMPO 2614/2615 2SM SHRA BR BKN020
     FM261600 18012KT P6SM SCT025 BKN035
     FM261900 22013G19KT P6SM BKN040
     FM270100 23006KT P6SM SCT050 BKN250=



000
FTUS43 KDVN 261245 AAA
TAFDBQ
TAF AMD
KDBQ 261245Z 2613/2712 14009KT 3SM -SHRA BR VCTS BKN004 OVC020CB
     FM261400 15012KT 6SM -SHRA BR SCT015 OVC050
      TEMPO 2614/2616 3SM SHRA BR BKN015
     FM261700 18012KT P6SM VCSH BKN025
     FM262000 22013G19KT P6SM BKN035
     FM270100 23006KT P6SM SCT035 BKN250=



000
FTUS43 KDVN 261245 AAA
TAFDBQ
TAF AMD
KDBQ 261245Z 2613/2712 14009KT 3SM -SHRA BR VCTS BKN004 OVC020CB
     FM261400 15012KT 6SM -SHRA BR SCT015 OVC050
      TEMPO 2614/2616 3SM SHRA BR BKN015
     FM261700 18012KT P6SM VCSH BKN025
     FM262000 22013G19KT P6SM BKN035
     FM270100 23006KT P6SM SCT035 BKN250=



000
FTUS43 KDVN 261244 AAA
TAFCID
TAF AMD
KCID 261244Z 2613/2712 15010KT 6SM -RA BR SCT015 OVC050
      TEMPO 2613/2616 3SM RA BR BKN015
     FM261600 17011KT P6SM VCSH BKN025
     FM261900 20013KT P6SM BKN035
     FM270100 23006KT P6SM SCT040 BKN250=



000
FTUS43 KDVN 261244 AAA
TAFCID
TAF AMD
KCID 261244Z 2613/2712 15010KT 6SM -RA BR SCT015 OVC050
      TEMPO 2613/2616 3SM RA BR BKN015
     FM261600 17011KT P6SM VCSH BKN025
     FM261900 20013KT P6SM BKN035
     FM270100 23006KT P6SM SCT040 BKN250=



000
FTUS43 KDVN 261137
TAFCID
TAF
KCID 261137Z 2612/2712 12008KT 4SM -RA BR BKN015 OVC050
      TEMPO 2612/2615 2SM RA BR BKN010
     FM261600 16009KT P6SM VCSH BKN025
     FM261900 20013KT P6SM BKN035
     FM270100 23006KT P6SM SCT040 BKN250=



000
FTUS43 KDVN 261137
TAFDBQ
TAF
KDBQ 261137Z 2612/2712 14009KT P6SM OVC015
     FM261330 15012KT 6SM -SHRA BR SCT015 OVC050
      TEMPO 2614/2616 3SM SHRA BR BKN015
     FM261700 18012KT P6SM VCSH BKN025
     FM262000 22013G19KT P6SM BKN035
     FM270100 23006KT P6SM SCT035 BKN250=



000
FTUS43 KDVN 261137
TAFMLI
TAF
KMLI 261137Z 2612/2712 14012KT 6SM -SHRA BR SCT015 OVC050
      TEMPO 2612/2614 3SM SHRA BR BKN015
     FM261600 18012KT P6SM SCT025 BKN035
     FM261900 22013G19KT P6SM BKN040
     FM270100 23006KT P6SM SCT050 BKN250=



000
FTUS43 KDVN 261137
TAFBRL
TAF
KBRL 261137Z 2612/2712 15010KT 6SM -SHRA SCT015 OVC050
     FM261500 19011KT P6SM SCT025 BKN035
     FM261800 22013G19KT P6SM BKN040
     FM270100 23006KT P6SM SCT050 BKN250=



000
FTUS43 KDVN 261137
TAFMLI
TAF
KMLI 261137Z 2612/2712 14012KT 6SM -SHRA BR SCT015 OVC050
      TEMPO 2612/2614 3SM SHRA BR BKN015
     FM261600 18012KT P6SM SCT025 BKN035
     FM261900 22013G19KT P6SM BKN040
     FM270100 23006KT P6SM SCT050 BKN250=



000
FTUS43 KDVN 261137
TAFBRL
TAF
KBRL 261137Z 2612/2712 15010KT 6SM -SHRA SCT015 OVC050
     FM261500 19011KT P6SM SCT025 BKN035
     FM261800 22013G19KT P6SM BKN040
     FM270100 23006KT P6SM SCT050 BKN250=



000
FTUS43 KDVN 261137
TAFCID
TAF
KCID 261137Z 2612/2712 12008KT 4SM -RA BR BKN015 OVC050
      TEMPO 2612/2615 2SM RA BR BKN010
     FM261600 16009KT P6SM VCSH BKN025
     FM261900 20013KT P6SM BKN035
     FM270100 23006KT P6SM SCT040 BKN250=



000
FTUS43 KDVN 261137
TAFDBQ
TAF
KDBQ 261137Z 2612/2712 14009KT P6SM OVC015
     FM261330 15012KT 6SM -SHRA BR SCT015 OVC050
      TEMPO 2614/2616 3SM SHRA BR BKN015
     FM261700 18012KT P6SM VCSH BKN025
     FM262000 22013G19KT P6SM BKN035
     FM270100 23006KT P6SM SCT035 BKN250=



000
FTUS43 KDVN 261059 AAA
TAFMLI
TAF AMD
KMLI 261059Z 2611/2706 15010KT P6SM OVC012
     FM261200 14010KT 5SM -SHRA BR BKN015 OVC060
     FM261700 21014G22KT P6SM BKN035
     FM270100 23005KT 6SM BR BKN060=



000
FTUS43 KDVN 261059 AAA
TAFMLI
TAF AMD
KMLI 261059Z 2611/2706 15010KT P6SM OVC012
     FM261200 14010KT 5SM -SHRA BR BKN015 OVC060
     FM261700 21014G22KT P6SM BKN035
     FM270100 23005KT 6SM BR BKN060=



000
FTUS43 KDVN 261037 AAA
TAFBRL
TAF AMD
KBRL 261037Z 2611/2706 15010KT P6SM VCSH BKN012 OVC060
      TEMPO 2611/2615 6SM -SHRA BR BKN025
     FM261700 22013G21KT P6SM BKN040
     FM270100 23005KT 6SM BR BKN060=



000
FTUS43 KDVN 260949 AAA
TAFCID
TAF AMD
KCID 260949Z 2610/2706 11005KT P6SM SCT025 OVC100
      TEMPO 2610/2611 BKN025
     FM261100 16007KT 6SM -SHRA VCTS BKN030CB
     FM261300 17010KT 5SM -SHRA BR BKN025
     FM261800 23014G22KT P6SM BKN040
     FM270100 26004KT 6SM BR BKN060=



000
FTUS43 KDVN 260842 AAA
TAFDBQ
TAF AMD
KDBQ 260842Z 2609/2706 20006KT P6SM VCSH SCT015 BKN035
      TEMPO 2609/2611 BKN015
     FM261100 18008KT 6SM -SHRA VCTS BKN030CB
     FM261300 18010KT 5SM -SHRA BR BKN020
     FM262000 21015G23KT P6SM BKN035
     FM270100 23005KT 6SM BR BKN050=



000
FTUS43 KDVN 260842 AAA
TAFDBQ
TAF AMD
KDBQ 260842Z 2609/2706 20006KT P6SM VCSH SCT015 BKN035
      TEMPO 2609/2611 BKN015
     FM261100 18008KT 6SM -SHRA VCTS BKN030CB
     FM261300 18010KT 5SM -SHRA BR BKN020
     FM262000 21015G23KT P6SM BKN035
     FM270100 23005KT 6SM BR BKN050=



000
FTUS43 KDVN 260520
TAFDBQ
TAF
KDBQ 260520Z 2606/2706 19008KT P6SM BKN070
     FM260900 18008KT 6SM -SHRA VCTS BKN040CB
     FM261300 18010KT 5SM -SHRA BR BKN020
     FM262000 21015G23KT P6SM BKN035
     FM270100 23005KT 6SM BR BKN050=



000
FTUS43 KDVN 260520
TAFBRL
TAF
KBRL 260520Z 2606/2706 16008KT P6SM BKN120
     FM261100 18010KT 6SM -SHRA BR BKN025
     FM261800 22013G21KT P6SM BKN040
     FM270100 23005KT 6SM BR BKN060=



000
FTUS43 KDVN 260520
TAFMLI
TAF
KMLI 260520Z 2606/2706 16008KT P6SM BKN120
     FM261200 18010KT 6SM -SHRA BR BKN025
     FM261900 21014G22KT P6SM BKN040
     FM270100 23005KT 6SM BR BKN060=



000
FTUS43 KDVN 260520
TAFMLI
TAF
KMLI 260520Z 2606/2706 16008KT P6SM BKN120
     FM261200 18010KT 6SM -SHRA BR BKN025
     FM261900 21014G22KT P6SM BKN040
     FM270100 23005KT 6SM BR BKN060=



000
FTUS43 KDVN 260520
TAFCID
TAF
KCID 260520Z 2606/2706 15005KT P6SM VCSH BKN050
     FM260800 16007KT 6SM -SHRA VCTS BKN040CB
     FM261300 17010KT 5SM -SHRA BR BKN025
     FM261800 23014G22KT P6SM BKN040
     FM270100 26004KT 6SM BR BKN060=



000
FTUS43 KDVN 260520
TAFBRL
TAF
KBRL 260520Z 2606/2706 16008KT P6SM BKN120
     FM261100 18010KT 6SM -SHRA BR BKN025
     FM261800 22013G21KT P6SM BKN040
     FM270100 23005KT 6SM BR BKN060=



000
FTUS43 KDVN 260520
TAFCID
TAF
KCID 260520Z 2606/2706 15005KT P6SM VCSH BKN050
     FM260800 16007KT 6SM -SHRA VCTS BKN040CB
     FM261300 17010KT 5SM -SHRA BR BKN025
     FM261800 23014G22KT P6SM BKN040
     FM270100 26004KT 6SM BR BKN060=



000
FTUS43 KDVN 260520
TAFDBQ
TAF
KDBQ 260520Z 2606/2706 19008KT P6SM BKN070
     FM260900 18008KT 6SM -SHRA VCTS BKN040CB
     FM261300 18010KT 5SM -SHRA BR BKN020
     FM262000 21015G23KT P6SM BKN035
     FM270100 23005KT 6SM BR BKN050=



000
FTUS43 KDVN 252334
TAFDBQ
TAF
KDBQ 252334Z 2600/2624 21012KT P6SM FEW050
     FM260130 18010KT P6SM SCT080
     FM260600 19010KT P6SM VCTS BKN050CB
     FM261100 19007KT 5SM BR BKN020
     FM261500 20009KT 6SM -SHRA BR BKN030=



000
FTUS43 KDVN 252334
TAFCID
TAF
KCID 252334Z 2600/2624 19012KT P6SM FEW050
     FM260130 18005KT P6SM SCT080
     FM260500 19005KT P6SM VCTS BKN050CB
     FM261100 17005KT 5SM BR BKN025
     FM261500 20009KT 6SM -SHRA BR BKN030=



000
FTUS43 KDVN 252334
TAFMLI
TAF
KMLI 252334Z 2600/2624 19010KT P6SM FEW050
     FM260130 17007KT P6SM FEW080
     FM261100 19006KT 5SM BR BKN025
     FM261400 21009KT 6SM -SHRA BR BKN035=



000
FTUS43 KDVN 252334
TAFMLI
TAF
KMLI 252334Z 2600/2624 19010KT P6SM FEW050
     FM260130 17007KT P6SM FEW080
     FM261100 19006KT 5SM BR BKN025
     FM261400 21009KT 6SM -SHRA BR BKN035=



000
FTUS43 KDVN 252334
TAFBRL
TAF
KBRL 252334Z 2600/2624 19011KT P6SM SCT050
     FM260130 16005KT P6SM FEW080
     FM261000 19006KT 5SM BR BKN035
     FM261300 21009KT 6SM -SHRA BR BKN040=



000
FTUS43 KDVN 252334
TAFDBQ
TAF
KDBQ 252334Z 2600/2624 21012KT P6SM FEW050
     FM260130 18010KT P6SM SCT080
     FM260600 19010KT P6SM VCTS BKN050CB
     FM261100 19007KT 5SM BR BKN020
     FM261500 20009KT 6SM -SHRA BR BKN030=



000
FTUS43 KDVN 252334
TAFCID
TAF
KCID 252334Z 2600/2624 19012KT P6SM FEW050
     FM260130 18005KT P6SM SCT080
     FM260500 19005KT P6SM VCTS BKN050CB
     FM261100 17005KT 5SM BR BKN025
     FM261500 20009KT 6SM -SHRA BR BKN030=



000
FTUS43 KDVN 252334
TAFBRL
TAF
KBRL 252334Z 2600/2624 19011KT P6SM SCT050
     FM260130 16005KT P6SM FEW080
     FM261000 19006KT 5SM BR BKN035
     FM261300 21009KT 6SM -SHRA BR BKN040=



000
FTUS43 KDVN 251730
TAFDBQ
TAF
KDBQ 251730Z 2518/2618 23015G23KT P6SM SCT025 BKN040
      TEMPO 2518/2519 BKN025
     FM260000 19010KT P6SM SCT050 BKN250
     FM260500 19008KT P6SM BKN080 PROB30 2606/2611 5SM -SHRA BR
      BKN025
     FM261500 18009KT P6SM BKN100=



000
FTUS43 KDVN 251730
TAFCID
TAF
KCID 251730Z 2518/2618 23015G23KT P6SM SCT025 BKN040
      TEMPO 2518/2519 BKN025
     FM260000 19012KT P6SM BKN250
     FM260400 19008KT P6SM BKN050 PROB30 2605/2610 3SM -TSRA BR
      BKN025CB
     FM261500 18009KT P6SM BKN100=



000
FTUS43 KDVN 251730
TAFMLI
TAF
KMLI 251730Z 2518/2618 22015G23KT P6SM SCT025 BKN040
     FM252300 21010KT P6SM SCT040 BKN250
     FM260900 18007KT P6SM BKN150
     FM261500 20008KT P6SM VCSH BKN050=



000
FTUS43 KDVN 251730
TAFBRL
TAF
KBRL 251730Z 2518/2618 22015G23KT P6SM SCT025 BKN035
     FM252300 21010KT P6SM SCT050
     FM260900 19007KT P6SM BKN150
     FM261400 20009KT P6SM VCSH BKN050=



000
FTUS43 KDVN 251626 AAB
TAFMLI
TAF AMD
KMLI 251626Z 2516/2612 24016G24KT P6SM BKN025
     FM251800 23015G24KT P6SM SCT025 BKN040
     FM252300 21012KT P6SM SCT040 BKN250
     FM260400 18008KT P6SM BKN050 PROB30 2609/2612 5SM SHRA BKN030=



000
FTUS43 KDVN 251624 AAB
TAFDBQ
TAF AMD
KDBQ 251624Z 2516/2612 23016G23KT P6SM SCT008 BKN015
      TEMPO 2517/2518 BKN025
     FM251800 22018G26KT P6SM SCT025 BKN040
     FM252300 21012KT P6SM SCT040 BKN250
     FM260400 18008KT P6SM BKN050 PROB30 2606/2612 5SM SHRA BKN030=



000
FTUS43 KDVN 251503 AAA
TAFCID
TAF AMD
KCID 251503Z 2515/2612 23015G20KT P6SM VCSH BKN015
     FM251700 23016G24KT P6SM SCT025 BKN040
     FM252300 22012KT P6SM SCT040 BKN250
     FM260400 19008KT P6SM BKN050 PROB30 2606/2612 4SM -TSRA BR
      BKN025CB=



000
FTUS43 KDVN 251500 AAC
TAFBRL
TAF AMD
KBRL 251500Z 2515/2612 23012G18KT P6SM SCT015 BKN025
      TEMPO 2515/2516 BKN015
     FM251700 23014G22KT P6SM SCT020 BKN035
     FM252300 21012KT P6SM SCT040 BKN250
     FM260400 18008KT P6SM BKN050 PROB30 2609/2612 5SM SHRA BKN030=



000
FTUS43 KDVN 251500 AAC
TAFBRL
TAF AMD
KBRL 251500Z 2515/2612 23012G18KT P6SM SCT015 BKN025
      TEMPO 2515/2516 BKN015
     FM251700 23014G22KT P6SM SCT020 BKN035
     FM252300 21012KT P6SM SCT040 BKN250
     FM260400 18008KT P6SM BKN050 PROB30 2609/2612 5SM SHRA BKN030=



000
FTUS43 KDVN 251335 AAB
TAFBRL
TAF AMD
KBRL 251335Z 2514/2612 23011KT P6SM SCT008 BKN040
     FM251600 23014G22KT P6SM SCT020 BKN035
     FM252300 21012KT P6SM SCT040 BKN250
     FM260400 18008KT P6SM BKN050 PROB30 2609/2612 5SM SHRA BKN030=



000
FTUS43 KDVN 251250 AAA
TAFBRL
TAF AMD
KBRL 251250Z 2513/2612 23011KT P6SM VCSH BKN015 OVC025
     FM251600 23014G22KT P6SM SCT025 BKN035
     FM252300 21012KT P6SM SCT040 BKN250
     FM260400 18008KT P6SM BKN050 PROB30 2609/2612 5SM SHRA BKN030=



000
FTUS43 KDVN 251250 AAA
TAFDBQ
TAF AMD
KDBQ 251250Z 2513/2612 22011KT P6SM BKN008
      TEMPO 2514/2516 5SM -SHRA BR BKN012 OVC035
     FM251600 23016G23KT P6SM BKN020
     FM251800 22018G26KT P6SM SCT025 BKN040
     FM252300 21012KT P6SM SCT040 BKN250
     FM260400 18008KT P6SM BKN050 PROB30 2606/2612 5SM SHRA BKN030=



000
FTUS43 KDVN 251249 AAA
TAFMLI
TAF AMD
KMLI 251249Z 2513/2612 23011KT P6SM VCSH SCT015 BKN035
      TEMPO 2513/2516 6SM -SHRA BKN015
     FM251600 23016G24KT P6SM SCT025 BKN040
     FM252300 21012KT P6SM SCT040 BKN250
     FM260400 18008KT P6SM BKN050 PROB30 2609/2612 5SM SHRA BKN030=



000
FTUS43 KDVN 251151
TAFDBQ
TAF
KDBQ 251151Z 2512/2612 22013KT 5SM BR BKN004 OVC012
     FM251400 22011KT P6SM BKN008
      TEMPO 2514/2516 5SM -SHRA BR BKN012 OVC035
     FM251600 23016G23KT P6SM BKN020
     FM251800 22018G26KT P6SM SCT025 BKN040
     FM252300 21012KT P6SM SCT040 BKN250
     FM260400 18008KT P6SM BKN050 PROB30 2606/2612 5SM SHRA BKN030=



000
FTUS43 KDVN 251151
TAFBRL
TAF
KBRL 251151Z 2512/2612 23011KT P6SM VCSH BKN035 OVC080
      TEMPO 2512/2514 5SM -SHRA BR SCT015 OVC030
     FM251500 23014G22KT P6SM SCT025 BKN040
     FM252300 21012KT P6SM SCT040 BKN250
     FM260400 18008KT P6SM BKN050 PROB30 2609/2612 5SM SHRA BKN030=



000
FTUS43 KDVN 251151
TAFDBQ
TAF
KDBQ 251151Z 2512/2612 22013KT 5SM BR BKN004 OVC012
     FM251400 22011KT P6SM BKN008
      TEMPO 2514/2516 5SM -SHRA BR BKN012 OVC035
     FM251600 23016G23KT P6SM BKN020
     FM251800 22018G26KT P6SM SCT025 BKN040
     FM252300 21012KT P6SM SCT040 BKN250
     FM260400 18008KT P6SM BKN050 PROB30 2606/2612 5SM SHRA BKN030=



000
FTUS43 KDVN 251151
TAFMLI
TAF
KMLI 251151Z 2512/2612 23011KT P6SM VCSH BKN035 OVC080
      TEMPO 2513/2515 5SM -SHRA BR SCT015 OVC030
     FM251600 23016G24KT P6SM SCT025 BKN040
     FM252300 21012KT P6SM SCT040 BKN250
     FM260400 18008KT P6SM BKN050 PROB30 2609/2612 5SM SHRA BKN030=



000
FTUS43 KDVN 251151
TAFCID
TAF
KCID 251151Z 2512/2612 22010KT P6SM SCT015 BKN035
      TEMPO 2512/2515 4SM -SHRA BKN012
     FM251600 23016G24KT P6SM SCT025 BKN040
     FM252300 22012KT P6SM SCT040 BKN250
     FM260400 19008KT P6SM BKN050 PROB30 2606/2612 4SM -TSRA BR
      BKN025CB=



000
FTUS43 KDVN 251151
TAFBRL
TAF
KBRL 251151Z 2512/2612 23011KT P6SM VCSH BKN035 OVC080
      TEMPO 2512/2514 5SM -SHRA BR SCT015 OVC030
     FM251500 23014G22KT P6SM SCT025 BKN040
     FM252300 21012KT P6SM SCT040 BKN250
     FM260400 18008KT P6SM BKN050 PROB30 2609/2612 5SM SHRA BKN030=



000
FTUS43 KDVN 251151
TAFMLI
TAF
KMLI 251151Z 2512/2612 23011KT P6SM VCSH BKN035 OVC080
      TEMPO 2513/2515 5SM -SHRA BR SCT015 OVC030
     FM251600 23016G24KT P6SM SCT025 BKN040
     FM252300 21012KT P6SM SCT040 BKN250
     FM260400 18008KT P6SM BKN050 PROB30 2609/2612 5SM SHRA BKN030=



000
FTUS43 KDVN 251151
TAFCID
TAF
KCID 251151Z 2512/2612 22010KT P6SM SCT015 BKN035
      TEMPO 2512/2515 4SM -SHRA BKN012
     FM251600 23016G24KT P6SM SCT025 BKN040
     FM252300 22012KT P6SM SCT040 BKN250
     FM260400 19008KT P6SM BKN050 PROB30 2606/2612 4SM -TSRA BR
      BKN025CB=



000
FTUS43 KDVN 251117 AAC
TAFMLI
TAF AMD
KMLI 251117Z 2511/2606 23009KT P6SM BKN035 OVC080
     FM251330 23013KT 5SM -SHRA BR BKN015 OVC025
     FM251600 23016G24KT P6SM BKN040=



000
FTUS43 KDVN 251117 AAC
TAFMLI
TAF AMD
KMLI 251117Z 2511/2606 23009KT P6SM BKN035 OVC080
     FM251330 23013KT 5SM -SHRA BR BKN015 OVC025
     FM251600 23016G24KT P6SM BKN040=



000
FTUS43 KDVN 251115 AAC
TAFDBQ
TAF AMD
KDBQ 251115Z 2511/2606 24010KT 6SM BR BKN005 OVC035
     FM251300 22011KT P6SM VCSH BKN012 OVC025
     FM251600 23017G25KT P6SM BKN025
     FM251700 22018G26KT P6SM BKN050=



000
FTUS43 KDVN 251114 AAC
TAFCID
TAF AMD
KCID 251114Z 2511/2606 22009KT P6SM BKN010 OVC025
     FM251300 22012KT 5SM -SHRA BR BKN008 OVC015
     FM251500 24015KT P6SM BKN025
     FM251700 22018G26KT P6SM BKN050=



000
FTUS43 KDVN 250919 AAB
TAFBRL
TAF AMD
KBRL 250919Z 2509/2606 24010KT P6SM VCSH SCT006 BKN015 OVC040
      TEMPO 2511/2513 5SM -RA BR SCT006 OVC025
     FM251600 23014G23KT P6SM BKN040=



000
FTUS43 KDVN 250913 AAB
TAFMLI
TAF AMD
KMLI 250913Z 2509/2606 19015G22KT P6SM -RA OVC010
     FM251100 24011KT 6SM -RA BR SCT008 BKN025
     FM251400 23013KT P6SM BKN015
     FM251600 23016G24KT P6SM BKN040=



000
FTUS43 KDVN 250911 AAB
TAFCID
TAF AMD
KCID 250911Z 2509/2606 22007KT P6SM VCSH SCT008 BKN035 OVC080
     FM251200 22010KT 5SM -SHRA BR BKN008 OVC015
     FM251400 22013KT 6SM BR BKN025
     FM251700 22018G26KT P6SM BKN050=



000
FTUS43 KDVN 250812 AAA
TAFBRL
TAF AMD
KBRL 250812Z 2508/2606 23008KT 5SM -SHRA BR BKN006 OVC035
     FM251300 23012KT 5SM BR BKN015
     FM251600 23014G23KT P6SM BKN040=



000
FTUS43 KDVN 250810 AAA
TAFMLI
TAF AMD
KMLI 250810Z 2508/2606 13006KT P6SM VCSH BKN060
      TEMPO 2510/2514 5SM -SHRA BR SCT008 BKN020
     FM251400 23013KT 5SM BR BKN015
     FM251600 23016G24KT P6SM BKN040=



000
FTUS43 KDVN 250805 AAB
TAFDBQ
TAF AMD
KDBQ 250805Z 2508/2606 18010KT 5SM SHRA BR BKN008 OVC035
     FM251100 22013KT 2SM -SHRA BR BKN006 OVC012
     FM251400 23017G25KT 6SM BR BKN025
     FM251700 22018G26KT P6SM BKN050=



000
FTUS43 KDVN 250619 AAA
TAFCID
TAF AMD
KCID 250619Z 2506/2606 18007KT P6SM VCSH SCT008 BKN025
      TEMPO 2507/2510 5SM -SHRA BR SCT008 OVC012
     FM251000 22010KT 2SM -SHRA BR BKN006 OVC012
     FM251400 22013KT 6SM BR BKN025
     FM251700 22018G26KT P6SM BKN050=



000
FTUS43 KDVN 250619 AAA
TAFDBQ
TAF AMD
KDBQ 250619Z 2506/2606 18011KT P6SM VCSH SCT008 BKN040
      TEMPO 2509/2511 5SM -SHRA BR BKN008 OVC025
     FM251100 22013KT 2SM -SHRA BR BKN006 OVC012
     FM251400 23017G25KT 6SM BR BKN025
     FM251700 22018G26KT P6SM BKN050=



000
FTUS43 KDVN 250520
TAFMLI
TAF
KMLI 250520Z 2506/2606 16009KT P6SM VCSH BKN060
      TEMPO 2506/2508 5SM -SHRA BR SCT008 BKN020
     FM250800 15012KT 2SM -SHRA BR BKN006 OVC012
     FM251400 23013KT 5SM BR BKN015
     FM251600 23016G24KT P6SM BKN040=



000
FTUS43 KDVN 250520
TAFCID
TAF
KCID 250520Z 2506/2606 17009KT P6SM VCSH SCT008 BKN025
      TEMPO 2506/2508 5SM -SHRA BR BKN008 OVC020
     FM250800 22010KT 2SM -SHRA BR BKN006 OVC012
     FM251400 22013KT 6SM BR BKN025
     FM251700 22018G26KT P6SM BKN050=



000
FTUS43 KDVN 250520
TAFDBQ
TAF
KDBQ 250520Z 2506/2606 14007KT P6SM VCSH SCT008 BKN040
      TEMPO 2506/2508 5SM -SHRA BR BKN008 OVC025
     FM250800 22013KT 2SM -SHRA BR BKN006 OVC012
     FM251400 23017G25KT 6SM BR BKN025
     FM251700 22018G26KT P6SM BKN050=



000
FTUS43 KDVN 250520
TAFBRL
TAF
KBRL 250520Z 2506/2606 17008KT P6SM VCSH SCT008 BKN050
      TEMPO 2506/2508 5SM -SHRA BR BKN008 OVC020
     FM250800 20012KT 2SM -SHRA BR BKN006 OVC012
     FM251300 23012KT 5SM BR BKN015
     FM251600 23014G23KT P6SM BKN040=



000
FTUS43 KDVN 250416 AAA
TAFBRL
TAF AMD
KBRL 250416Z 2504/2524 17010KT P6SM VCSH BKN050
     FM250500 18009KT 3SM -SHRA BR OVC012
     FM251200 22012KT 5SM BR VCSH BKN020
     FM251500 22013G22KT P6SM BKN040=



000
FTUS43 KDVN 250406 AAB
TAFCID
TAF AMD
KCID 250406Z 2504/2524 17009KT P6SM VCSH SCT008 BKN025
      TEMPO 2504/2507 5SM -SHRA BR BKN008 OVC020
     FM250700 14010KT 3SM -SHRA BR BKN009 OVC012
     FM251400 22015G22KT P6SM BKN035=



000
FTUS43 KDVN 250129 AAB
TAFMLI
TAF AMD
KMLI 250129Z 2501/2524 20005KT P6SM VCSH BKN050
     FM250700 16014KT 3SM -SHRA BR OVC015
     FM251300 23015G23KT 5SM BR VCSH BKN020
     FM251500 23016G24KT P6SM SCT035=



000
FTUS43 KDVN 250129 AAB
TAFMLI
TAF AMD
KMLI 250129Z 2501/2524 20005KT P6SM VCSH BKN050
     FM250700 16014KT 3SM -SHRA BR OVC015
     FM251300 23015G23KT 5SM BR VCSH BKN020
     FM251500 23016G24KT P6SM SCT035=



000
FTUS43 KDVN 250107 AAA
TAFDBQ
TAF AMD
KDBQ 250107Z 2501/2524 11005KT 4SM -SHRA BR BKN080
      TEMPO 2501/2502 2SM TSRA BR OVC025CB
     FM250800 14010KT 3SM -SHRA BR BKN009 OVC012
     FM251500 24017G25KT P6SM BKN025=



000
FTUS43 KDVN 250100 AAA
TAFCID
TAF AMD
KCID 250100Z 2501/2524 14008KT P6SM VCSH BKN050
     FM250700 14010KT 3SM -SHRA BR BKN009 OVC012
     FM251400 22015G22KT P6SM BKN035=



000
FTUS43 KDVN 250100 AAA
TAFCID
TAF AMD
KCID 250100Z 2501/2524 14008KT P6SM VCSH BKN050
     FM250700 14010KT 3SM -SHRA BR BKN009 OVC012
     FM251400 22015G22KT P6SM BKN035=



000
FTUS43 KDVN 250010 AAA
TAFMLI
TAF AMD
KMLI 250010Z 2500/2524 15012KT 6SM -SHRA BR BKN050
      TEMPO 2500/2501 VRB30G45KT 2SM TSRA BR BKN012 OVC025CB
     FM250500 18007KT 2SM -SHRA BR BKN009 OVC012
     FM251200 23014G22KT 5SM BR VCSH BKN020=



000
FTUS43 KDVN 250010 AAA
TAFMLI
TAF AMD
KMLI 250010Z 2500/2524 15012KT 6SM -SHRA BR BKN050
      TEMPO 2500/2501 VRB30G45KT 2SM TSRA BR BKN012 OVC025CB
     FM250500 18007KT 2SM -SHRA BR BKN009 OVC012
     FM251200 23014G22KT 5SM BR VCSH BKN020=



000
FTUS43 KDVN 242352
TAFBRL
TAF
KBRL 242352Z 2500/2524 20012KT P6SM VCTS BKN040CB
      TEMPO 2500/2503 4SM TSRA BR BKN012 OVC025CB
     FM250300 15009KT 3SM -SHRA BR OVC012
     FM251100 23013G21KT 5SM BR VCSH BKN020
     FM251500 22013KT P6SM SCT250=



000
FTUS43 KDVN 242352
TAFDBQ
TAF
KDBQ 242352Z 2500/2524 09010KT 4SM -SHRA BR BKN080
      TEMPO 2500/2502 2SM TSRA BR OVC015CB
     FM250700 16007KT 2SM -SHRA BR BKN009 OVC012
     FM251400 24015G25KT 5SM BR VCSH BKN020=



000
FTUS43 KDVN 242352
TAFCID
TAF
KCID 242352Z 2500/2524 13012KT 4SM BR VCSH SCT012 BKN050
      TEMPO 2500/2503 2SM TSRA BR OVC015CB
     FM250700 16007KT 2SM -SHRA BR BKN009 OVC012
     FM251400 22014G22KT 5SM BR VCSH BKN020=



000
FTUS43 KDVN 242352
TAFMLI
TAF
KMLI 242352Z 2500/2524 15012KT 6SM -SHRA BR BKN050
      TEMPO 2500/2502 2SM TSRA BR BKN012 OVC025CB
     FM250500 18007KT 2SM -SHRA BR BKN009 OVC012
     FM251200 23014G22KT 5SM BR VCSH BKN020=



000
FTUS43 KDVN 242352
TAFDBQ
TAF
KDBQ 242352Z 2500/2524 09010KT 4SM -SHRA BR BKN080
      TEMPO 2500/2502 2SM TSRA BR OVC015CB
     FM250700 16007KT 2SM -SHRA BR BKN009 OVC012
     FM251400 24015G25KT 5SM BR VCSH BKN020=



000
FTUS43 KDVN 242352
TAFBRL
TAF
KBRL 242352Z 2500/2524 20012KT P6SM VCTS BKN040CB
      TEMPO 2500/2503 4SM TSRA BR BKN012 OVC025CB
     FM250300 15009KT 3SM -SHRA BR OVC012
     FM251100 23013G21KT 5SM BR VCSH BKN020
     FM251500 22013KT P6SM SCT250=



000
FTUS43 KDVN 242352
TAFMLI
TAF
KMLI 242352Z 2500/2524 15012KT 6SM -SHRA BR BKN050
      TEMPO 2500/2502 2SM TSRA BR BKN012 OVC025CB
     FM250500 18007KT 2SM -SHRA BR BKN009 OVC012
     FM251200 23014G22KT 5SM BR VCSH BKN020=



000
FTUS43 KDVN 242352
TAFCID
TAF
KCID 242352Z 2500/2524 13012KT 4SM BR VCSH SCT012 BKN050
      TEMPO 2500/2503 2SM TSRA BR OVC015CB
     FM250700 16007KT 2SM -SHRA BR BKN009 OVC012
     FM251400 22014G22KT 5SM BR VCSH BKN020=



000
FTUS43 KDVN 242128 AAB
TAFDBQ
TAF AMD
KDBQ 242128Z 2421/2518 06007KT 3SM SHRA BKN030 OVC060
     FM250000 13012KT 4SM SHRA BR BKN012 OVC030
     FM250700 16007KT 2SM -SHRA BR SCT007 BKN009 OVC012
     FM251400 24015G25KT 5SM BR VCSH BKN020=



000
FTUS43 KDVN 242011 AAA
TAFBRL
TAF AMD
KBRL 242011Z 2420/2518 18012KT P6SM VCSH BKN030 OVC060
     FM242200 18011KT 4SM TSRA BR BKN012 OVC030CB
     FM250300 18007KT 2SM -SHRA BR SCT007 BKN009 OVC012
     FM251100 22014G22KT 5SM BR VCSH BKN020=



000
FTUS43 KDVN 242010 AAA
TAFDBQ
TAF AMD
KDBQ 242010Z 2420/2518 10012KT 3SM SHRA BKN030 OVC060
     FM250000 16012KT 4SM SHRA BR BKN012 OVC030
     FM250700 18007KT 2SM -SHRA BR SCT007 BKN009 OVC012
     FM251400 24015G25KT 5SM BR VCSH BKN020=



000
FTUS43 KDVN 242009 AAA
TAFMLI
TAF AMD
KMLI 242009Z 2420/2518 15012KT P6SM SHRA BKN030 OVC060
     FM250000 15012KT 4SM TSRA BR BKN012 OVC030CB
     FM250500 18007KT 2SM -SHRA BR SCT007 BKN009 OVC012
     FM251200 23014G22KT 5SM BR VCSH BKN020=



000
FTUS43 KDVN 241744
TAFBRL
TAF
KBRL 241744Z 2418/2518 16012KT P6SM VCSH BKN030 OVC060
     FM242200 16012KT 4SM TSRA BR BKN012 OVC030CB
     FM250300 18007KT 2SM -SHRA BR SCT007 BKN009 OVC012
     FM251100 22014G22KT 5SM BR VCSH BKN020=



000
FTUS43 KDVN 241744
TAFMLI
TAF
KMLI 241744Z 2418/2518 10012KT P6SM VCSH BKN030 OVC060
      TEMPO 2418/2419 3SM SHRA FEW030 OVC040
     FM250000 15012KT 4SM TSRA BR BKN012 OVC030CB
     FM250500 18007KT 2SM -SHRA BR SCT007 BKN009 OVC012
     FM251200 23014G22KT 5SM BR VCSH BKN020=



000
FTUS43 KDVN 241744
TAFDBQ
TAF
KDBQ 241744Z 2418/2518 10012KT 5SM -SHRA BKN030 OVC060
     FM250000 16012KT 4SM SHRA BR BKN012 OVC030
     FM250700 18007KT 2SM -SHRA BR SCT007 BKN009 OVC012
     FM251400 24015G25KT 5SM BR VCSH BKN020=



000
FTUS43 KDVN 241744
TAFCID
TAF
KCID 241744Z 2418/2518 12012KT P6SM VCSH BKN030 OVC060
     FM242300 13012KT 4SM -SHRA BR BKN012 OVC030
     FM250700 16007KT 2SM -SHRA BR SCT007 BKN009 OVC012
     FM251400 22014G22KT 5SM BR VCSH BKN020=



000
FTUS43 KDVN 241744
TAFDBQ
TAF
KDBQ 241744Z 2418/2518 10012KT 5SM -SHRA BKN030 OVC060
     FM250000 16012KT 4SM SHRA BR BKN012 OVC030
     FM250700 18007KT 2SM -SHRA BR SCT007 BKN009 OVC012
     FM251400 24015G25KT 5SM BR VCSH BKN020=



000
FTUS43 KDVN 241744
TAFBRL
TAF
KBRL 241744Z 2418/2518 16012KT P6SM VCSH BKN030 OVC060
     FM242200 16012KT 4SM TSRA BR BKN012 OVC030CB
     FM250300 18007KT 2SM -SHRA BR SCT007 BKN009 OVC012
     FM251100 22014G22KT 5SM BR VCSH BKN020=



000
FTUS43 KDVN 241744
TAFMLI
TAF
KMLI 241744Z 2418/2518 10012KT P6SM VCSH BKN030 OVC060
      TEMPO 2418/2419 3SM SHRA FEW030 OVC040
     FM250000 15012KT 4SM TSRA BR BKN012 OVC030CB
     FM250500 18007KT 2SM -SHRA BR SCT007 BKN009 OVC012
     FM251200 23014G22KT 5SM BR VCSH BKN020=



000
FTUS43 KDVN 241744
TAFCID
TAF
KCID 241744Z 2418/2518 12012KT P6SM VCSH BKN030 OVC060
     FM242300 13012KT 4SM -SHRA BR BKN012 OVC030
     FM250700 16007KT 2SM -SHRA BR SCT007 BKN009 OVC012
     FM251400 22014G22KT 5SM BR VCSH BKN020=



000
FTUS43 KDVN 241628 AAC
TAFCID
TAF AMD
KCID 241628Z 2416/2512 11012KT 5SM RA BR FEW010 BKN030 OVC050
     FM241800 13012KT P6SM VCSH BKN025 OVC040
     FM242300 15012KT 2SM -TSRA BR BKN009 OVC020CB
     FM250300 16011KT 4SM -SHRA BR BKN009 OVC020
     FM250600 18011KT 3SM -RA BR BKN009 OVC015=



000
FTUS43 KDVN 241500 CCA
TAFCID
TAF COR
KCID 241500Z 2415/2512 11012KT 1 1/2SM RA BR FEW010 BKN030 OVC050
     FM241800 13012KT 5SM BR VCSH BKN025 OVC040
     FM242300 15012KT 2SM -TSRA BR BKN009 OVC020CB
     FM250300 16011KT 4SM -SHRA BR BKN009 OVC020
     FM250600 18011KT 3SM -RA BR BKN009 OVC015=



000
FTUS43 KDVN 241500 CCA
TAFCID
TAF COR
KCID 241500Z 2415/2512 11012KT 1 1/2SM RA BR FEW010 BKN030 OVC050
     FM241800 13012KT 5SM BR VCSH BKN025 OVC040
     FM242300 15012KT 2SM -TSRA BR BKN009 OVC020CB
     FM250300 16011KT 4SM -SHRA BR BKN009 OVC020
     FM250600 18011KT 3SM -RA BR BKN009 OVC015=



000
FTUS43 KDVN 241442 AAB
TAFCID
TAF AMD
KCID 241442Z 2415/2512 11012KT P6SM -RA BKN040
      TEMPO 2415/2416 1 1/2SM RA BR OVC030
     FM241800 13010KT 5SM BR OVC008
     FM250500 18011KT 6SM RA BR OVC011=



000
FTUS43 KDVN 241233 AAA
TAFCID
TAF AMD
KCID 241233Z 2413/2512 12008KT P6SM -RA BKN040
      TEMPO 2413/2416 2SM RA BR OVC025
     FM241800 13010KT 5SM BR OVC008 PROB30 2423/2505 3SM -TSRA
      BKN020CB
     FM250500 18011KT 6SM RA BR OVC011=



    US Dept of Commerce
    National Oceanic and Atmospheric Administration
    National Weather Service
    1325 East West Highway
    Silver Spring, MD 20910
    Page Author: NWS Internet Services Team
Disclaimer
Information Quality
Credits
Glossary
Privacy Policy
Freedom of Information Act (FOIA)
About Us
Career Opportunities